DLH578 EDDM-FAOR
Flight info
| Callsign | DLH578 |
|---|---|
| Flight time | N/A |
| Altitude | 37000 |
| Route | TURBU7N TURBU Y107 TOBSO DCT BAKOR DCT VESAL DCT LUMAV DCT TINTO DCT QUENN DCT ABDAB/N0480F380 UL44 TUC UW411 EBA UG362 BARKA/N0479F390 UM2 DJA UB730 DIR UA607 FL UM731 AMREN/N0482F410 UM731 RUDAS UQ25 ITROL UQ44 AVAGO AVAGO1C |
| Aircraft | A359/H-SADE2E3GHIJ1J2J3J4J5M1P2RWXYZ/LB1D1 |
Departure
| Time | 2026-05-03 21:36 |
|---|---|
| Airport | Munich Airport (EDDM) |
Arrival
| Time | N/A |
|---|---|
| Airport | O.R. Tambo International Airport (FAOR) |
| Time | Latitude | Longitude | Altitude | Speed | Heading |
|---|---|---|---|---|---|
| 2026-05-03 21:07 | 48.35319 | 11.79746 | 1476 ft | 0 kts | 83° |
| 2026-05-03 21:08 | 48.35319 | 11.79745 | 1492 ft | 0 kts | 83° |
| 2026-05-03 21:09 | 48.35319 | 11.79746 | 1491 ft | 0 kts | 83° |
| 2026-05-03 21:27 | 48.35317 | 11.79727 | 1491 ft | 4 kts | 83° |
| 2026-05-03 21:27 | 48.35314 | 11.79687 | 1476 ft | 3 kts | 83° |
| 2026-05-03 21:27 | 48.35312 | 11.79655 | 1476 ft | 4 kts | 101° |
| 2026-05-03 21:27 | 48.35322 | 11.79621 | 1476 ft | 4 kts | 143° |
| 2026-05-03 21:28 | 48.35345 | 11.79609 | 1478 ft | 4 kts | 173° |
| 2026-05-03 21:28 | 48.35370 | 11.79604 | 1476 ft | 2 kts | 173° |
| 2026-05-03 21:28 | 48.35371 | 11.79604 | 1476 ft | 0 kts | 173° |
| 2026-05-03 21:31 | 48.35367 | 11.79605 | 1476 ft | 3 kts | 173° |
| 2026-05-03 21:31 | 48.35314 | 11.79616 | 1476 ft | 12 kts | 173° |
| 2026-05-03 21:31 | 48.35200 | 11.79636 | 1479 ft | 20 kts | 173° |
| 2026-05-03 21:32 | 48.35061 | 11.79659 | 1480 ft | 20 kts | 174° |
| 2026-05-03 21:32 | 48.34924 | 11.79682 | 1478 ft | 17 kts | 174° |
| 2026-05-03 21:32 | 48.34826 | 11.79714 | 1483 ft | 14 kts | 143° |
| 2026-05-03 21:32 | 48.34811 | 11.79845 | 1480 ft | 14 kts | 85° |
| 2026-05-03 21:33 | 48.34825 | 11.80027 | 1480 ft | 22 kts | 82° |
| 2026-05-03 21:33 | 48.34849 | 11.80266 | 1484 ft | 21 kts | 81° |
| 2026-05-03 21:33 | 48.34857 | 11.80451 | 1479 ft | 13 kts | 103° |
| 2026-05-03 21:33 | 48.34798 | 11.80552 | 1476 ft | 13 kts | 150° |
| 2026-05-03 21:34 | 48.34706 | 11.80575 | 1488 ft | 13 kts | 176° |
| 2026-05-03 21:34 | 48.34616 | 11.80551 | 1484 ft | 13 kts | 201° |
| 2026-05-03 21:34 | 48.34540 | 11.80467 | 1476 ft | 14 kts | 219° |
| 2026-05-03 21:34 | 48.34477 | 11.80368 | 1478 ft | 12 kts | 248° |
| 2026-05-03 21:35 | 48.34463 | 11.80245 | 1479 ft | 12 kts | 264° |
| 2026-05-03 21:35 | 48.34449 | 11.80047 | 1479 ft | 38 kts | 263° |
| 2026-05-03 21:35 | 48.34392 | 11.79319 | 1487 ft | 101 kts | 263° |
| 2026-05-03 21:35 | 48.34292 | 11.77988 | 1478 ft | 154 kts | 263° |
| 2026-05-03 21:36 | 48.34150 | 11.76193 | 1743 ft | 179 kts | 264° |
| 2026-05-03 21:36 | 48.34014 | 11.74399 | 2573 ft | 168 kts | 266° |
| 2026-05-03 21:36 | 48.33879 | 11.72663 | 3245 ft | 167 kts | 264° |
| 2026-05-03 21:36 | 48.33365 | 11.71034 | 3457 ft | 189 kts | 225° |
| 2026-05-03 21:37 | 48.32059 | 11.70339 | 3656 ft | 216 kts | 184° |
| 2026-05-03 21:37 | 48.30518 | 11.70442 | 4090 ft | 225 kts | 179° |
| 2026-05-03 21:37 | 48.28968 | 11.70780 | 4656 ft | 229 kts | 166° |
| 2026-05-03 21:37 | 48.27501 | 11.71862 | 5119 ft | 242 kts | 148° |
| 2026-05-03 21:38 | 48.26062 | 11.73352 | 5410 ft | 260 kts | 146° |
| 2026-05-03 21:38 | 48.24550 | 11.74956 | 5870 ft | 271 kts | 146° |
| 2026-05-03 21:38 | 48.22993 | 11.76579 | 6536 ft | 274 kts | 145° |
| 2026-05-03 21:38 | 48.21423 | 11.78194 | 7267 ft | 274 kts | 146° |
| 2026-05-03 21:39 | 48.19849 | 11.79802 | 8043 ft | 274 kts | 146° |
| 2026-05-03 21:39 | 48.18243 | 11.81354 | 8772 ft | 276 kts | 152° |
| 2026-05-03 21:39 | 48.16475 | 11.82462 | 9541 ft | 276 kts | 161° |
| 2026-05-03 21:39 | 48.14651 | 11.83376 | 10268 ft | 279 kts | 162° |
| 2026-05-03 21:40 | 48.12750 | 11.84308 | 10622 ft | 296 kts | 162° |
| 2026-05-03 21:40 | 48.10739 | 11.85298 | 10938 ft | 313 kts | 162° |
| 2026-05-03 21:40 | 48.08623 | 11.86343 | 11242 ft | 329 kts | 162° |
| 2026-05-03 21:40 | 48.06405 | 11.87442 | 11655 ft | 340 kts | 162° |
| 2026-05-03 21:41 | 48.04143 | 11.88563 | 12250 ft | 346 kts | 163° |
| 2026-05-03 21:41 | 48.01843 | 11.89704 | 12880 ft | 350 kts | 163° |
| 2026-05-03 21:41 | 47.99514 | 11.90857 | 13522 ft | 355 kts | 163° |
| 2026-05-03 21:41 | 47.97191 | 11.92006 | 14110 ft | 358 kts | 163° |
| 2026-05-03 21:42 | 47.94780 | 11.93198 | 14679 ft | 362 kts | 163° |
| 2026-05-03 21:42 | 47.92373 | 11.94334 | 15245 ft | 364 kts | 167° |
| 2026-05-03 21:42 | 47.89869 | 11.94916 | 15848 ft | 365 kts | 177° |
| 2026-05-03 21:42 | 47.87324 | 11.95075 | 16426 ft | 367 kts | 181° |
| 2026-05-03 21:43 | 47.84762 | 11.95030 | 17013 ft | 370 kts | 183° |
| 2026-05-03 21:43 | 47.82181 | 11.94905 | 17604 ft | 372 kts | 184° |
| 2026-05-03 21:43 | 47.79581 | 11.94768 | 18160 ft | 377 kts | 183° |
| 2026-05-03 21:43 | 47.76943 | 11.94650 | 18615 ft | 381 kts | 183° |
| 2026-05-03 21:44 | 47.74283 | 11.94559 | 19122 ft | 385 kts | 182° |
| 2026-05-03 21:44 | 47.71598 | 11.94486 | 19625 ft | 388 kts | 182° |
| 2026-05-03 21:44 | 47.68882 | 11.94428 | 20143 ft | 392 kts | 182° |
| 2026-05-03 21:44 | 47.66142 | 11.94382 | 20646 ft | 396 kts | 182° |
| 2026-05-03 21:45 | 47.63409 | 11.94340 | 21124 ft | 400 kts | 182° |
| 2026-05-03 21:45 | 47.60573 | 11.94296 | 21583 ft | 405 kts | 182° |
| 2026-05-03 21:45 | 47.57747 | 11.94252 | 22110 ft | 408 kts | 182° |
| 2026-05-03 21:45 | 47.56237 | 11.94228 | 22427 ft | 409 kts | 182° |
| 2026-05-03 21:46 | 47.52619 | 11.94167 | 23085 ft | 413 kts | 183° |
| 2026-05-03 21:46 | 47.49732 | 11.94116 | 23577 ft | 417 kts | 183° |
| 2026-05-03 21:46 | 47.46816 | 11.94065 | 23982 ft | 421 kts | 183° |
| 2026-05-03 21:46 | 47.43921 | 11.93962 | 24401 ft | 423 kts | 186° |
| 2026-05-03 21:47 | 47.40988 | 11.93540 | 24837 ft | 425 kts | 188° |
| 2026-05-03 21:47 | 47.38042 | 11.93020 | 25244 ft | 427 kts | 189° |
| 2026-05-03 21:47 | 47.35504 | 11.92532 | 25573 ft | 430 kts | 189° |
| 2026-05-03 21:47 | 47.32536 | 11.91937 | 26028 ft | 432 kts | 190° |
| 2026-05-03 21:48 | 47.29544 | 11.91327 | 26443 ft | 435 kts | 190° |
| 2026-05-03 21:48 | 47.26533 | 11.90713 | 26903 ft | 438 kts | 190° |
| 2026-05-03 21:48 | 47.23506 | 11.90099 | 27333 ft | 440 kts | 190° |
| 2026-05-03 21:48 | 47.20469 | 11.89487 | 27724 ft | 443 kts | 189° |
| 2026-05-03 21:49 | 47.17400 | 11.88875 | 28153 ft | 445 kts | 190° |
| 2026-05-03 21:49 | 47.14324 | 11.88266 | 28595 ft | 447 kts | 190° |
| 2026-05-03 21:49 | 47.11231 | 11.87655 | 28933 ft | 451 kts | 189° |
| 2026-05-03 21:49 | 47.08114 | 11.87039 | 29256 ft | 454 kts | 189° |
| 2026-05-03 21:50 | 47.04979 | 11.86405 | 29710 ft | 455 kts | 190° |
| 2026-05-03 21:50 | 47.01832 | 11.85778 | 30105 ft | 458 kts | 190° |
| 2026-05-03 21:50 | 46.98676 | 11.85073 | 30416 ft | 459 kts | 192° |
| 2026-05-03 21:50 | 46.95542 | 11.84135 | 30690 ft | 462 kts | 194° |
| 2026-05-03 21:51 | 46.93470 | 11.83442 | 30886 ft | 463 kts | 195° |
| 2026-05-03 21:51 | 46.90318 | 11.82350 | 31186 ft | 465 kts | 195° |
| 2026-05-03 21:51 | 46.87165 | 11.81262 | 31453 ft | 467 kts | 195° |
| 2026-05-03 21:51 | 46.83989 | 11.80193 | 31755 ft | 469 kts | 195° |
| 2026-05-03 21:52 | 46.80797 | 11.79147 | 32023 ft | 471 kts | 194° |
| 2026-05-03 21:52 | 46.77592 | 11.78118 | 32266 ft | 473 kts | 194° |
| 2026-05-03 21:52 | 46.74373 | 11.77098 | 32484 ft | 475 kts | 194° |
| 2026-05-03 21:52 | 46.71132 | 11.76077 | 32725 ft | 477 kts | 194° |
| 2026-05-03 21:53 | 46.67886 | 11.75053 | 32986 ft | 478 kts | 194° |
| 2026-05-03 21:53 | 46.64641 | 11.74031 | 33369 ft | 476 kts | 194° |
| 2026-05-03 21:53 | 46.61387 | 11.73149 | 33720 ft | 477 kts | 189° |
| 2026-05-03 21:53 | 46.58080 | 11.72735 | 34024 ft | 477 kts | 186° |
| 2026-05-03 21:54 | 46.54776 | 11.72474 | 34355 ft | 475 kts | 185° |
| 2026-05-03 21:54 | 46.51477 | 11.72272 | 34656 ft | 474 kts | 185° |
| 2026-05-03 21:54 | 46.48176 | 11.72098 | 34870 ft | 475 kts | 185° |
| 2026-05-03 21:54 | 46.44879 | 11.71931 | 35071 ft | 475 kts | 185° |
| 2026-05-03 21:55 | 46.41577 | 11.71764 | 35308 ft | 475 kts | 185° |
| 2026-05-03 21:55 | 46.38273 | 11.71591 | 35518 ft | 475 kts | 185° |
| 2026-05-03 21:55 | 46.34972 | 11.71397 | 35743 ft | 474 kts | 186° |
| 2026-05-03 21:55 | 46.31678 | 11.71186 | 35961 ft | 474 kts | 186° |
| 2026-05-03 21:56 | 46.28386 | 11.70966 | 36142 ft | 474 kts | 186° |
| 2026-05-03 21:56 | 46.25094 | 11.70744 | 36355 ft | 474 kts | 186° |
| 2026-05-03 21:56 | 46.21797 | 11.70525 | 36534 ft | 474 kts | 186° |
| 2026-05-03 21:56 | 46.18502 | 11.70308 | 36741 ft | 474 kts | 186° |
| 2026-05-03 21:57 | 46.15208 | 11.70092 | 36866 ft | 475 kts | 186° |
| 2026-05-03 21:57 | 46.11913 | 11.69878 | 37043 ft | 474 kts | 186° |
| 2026-05-03 21:57 | 46.05281 | 11.69447 | 37119 ft | 479 kts | 186° |
| 2026-05-03 21:58 | 45.98631 | 11.69021 | 37128 ft | 478 kts | 186° |
| 2026-05-03 21:58 | 45.92017 | 11.68598 | 37136 ft | 479 kts | 186° |
| 2026-05-03 21:59 | 45.85353 | 11.68171 | 37144 ft | 479 kts | 186° |
| 2026-05-03 21:59 | 45.78692 | 11.67744 | 37124 ft | 479 kts | 186° |
| 2026-05-03 22:00 | 45.72026 | 11.67318 | 37110 ft | 480 kts | 186° |
| 2026-05-03 22:00 | 45.65351 | 11.66893 | 37109 ft | 480 kts | 186° |
| 2026-05-03 22:01 | 45.58683 | 11.66470 | 37092 ft | 480 kts | 186° |
| 2026-05-03 22:01 | 45.51995 | 11.66046 | 37093 ft | 482 kts | 186° |
| 2026-05-03 22:02 | 45.45295 | 11.65622 | 37097 ft | 482 kts | 186° |
| 2026-05-03 22:02 | 45.38580 | 11.65199 | 37102 ft | 482 kts | 186° |
| 2026-05-03 22:03 | 45.31872 | 11.64778 | 37106 ft | 483 kts | 186° |
| 2026-05-03 22:03 | 45.25161 | 11.64356 | 37119 ft | 484 kts | 186° |
| 2026-05-03 22:04 | 45.18421 | 11.63934 | 37115 ft | 485 kts | 186° |
| 2026-05-03 22:04 | 45.11674 | 11.63513 | 37120 ft | 486 kts | 186° |
| 2026-05-03 22:05 | 45.04905 | 11.63092 | 37122 ft | 487 kts | 186° |
| 2026-05-03 22:05 | 44.98160 | 11.62673 | 37123 ft | 487 kts | 186° |
| 2026-05-03 22:06 | 44.91405 | 11.62255 | 37127 ft | 486 kts | 186° |
| 2026-05-03 22:06 | 44.84680 | 11.61839 | 37129 ft | 486 kts | 186° |
| 2026-05-03 22:07 | 44.77924 | 11.61314 | 37119 ft | 485 kts | 189° |
| 2026-05-03 22:07 | 44.71257 | 11.60114 | 37111 ft | 483 kts | 192° |
| 2026-05-03 22:08 | 44.64602 | 11.58791 | 37101 ft | 483 kts | 191° |
| 2026-05-03 22:08 | 44.57935 | 11.57567 | 37093 ft | 483 kts | 191° |
| 2026-05-03 22:09 | 44.51271 | 11.56412 | 37097 ft | 482 kts | 191° |
| 2026-05-03 22:10 | 44.41332 | 11.54714 | 37115 ft | 481 kts | 191° |
| 2026-05-03 22:10 | 44.34691 | 11.53580 | 37127 ft | 480 kts | 191° |
| 2026-05-03 22:11 | 44.28055 | 11.52447 | 37164 ft | 480 kts | 191° |
| 2026-05-03 22:11 | 44.21425 | 11.51317 | 37173 ft | 480 kts | 191° |
| 2026-05-03 22:12 | 44.14797 | 11.50187 | 37167 ft | 480 kts | 191° |